aviador You're here:

UUEE Decoded Metar

MOSCOW/SHEREMETYEVO in RUSSIA
Report Time2017-08-20 13:00:00
UTC Time2017-08-20 13:40:51
Flight Rules vfr VFR
Wind210° at 10 Gusting to 21 kt
W.Decomp.*RWY 25: 6.4 kt HW 7.7 kt LCW
W.Rank210° ranks 3
Current wind is above 210° avg. (8.7)
Visibility9999 m
Phenomena:N/A
Clouds:N/A
Expected CloudBase > 7,200 ft AGL from Temp-Dew spread
CeilingNone
Temp31°C (ISA +17)
Dew Point13°C (33% RH)
Heat Index30.0°C
AAT28.3°C
QNH1022 hPa
Density Alt2,497 ft
Elevation623 ft
Report Wrong Elevation
Raw Report
METAR UUEE 201300Z 21005G11MPS CAVOK 31/13 Q1022 R24R/CLRD62 R24L/CLRD62
NOSIG=

Extra information for UUEE:More info

Metar Taf Metar & Taf Last 4 Metars F.Rules Stats Wind Profile Meteogram Temp Stats Airport Information Weather charts Add Link Nearby VenuesMetar ALERT Operation Metar Decoded Social comments